createdAt,value
2023-05-19T00:02:41.989Z,100236.64
2023-05-19T00:06:42.853Z,100235.08
2023-05-19T00:10:40.910Z,100235.80
2023-05-19T00:14:38.882Z,100237.34
2023-05-19T00:18:36.902Z,100235.39
2023-05-19T00:22:34.893Z,100233.52
2023-05-19T00:26:33.927Z,100232.36
2023-05-19T00:30:32.057Z,100234.48
2023-05-19T00:34:29.859Z,100232.02
2023-05-19T00:38:27.820Z,100229.94
2023-05-19T00:42:25.839Z,100230.58
2023-05-19T00:46:23.898Z,100227.67
2023-05-19T00:50:21.845Z,100224.16
2023-05-19T00:54:19.818Z,100223.56
2023-05-19T00:58:18.907Z,100227.78
2023-05-19T01:02:16.808Z,100230.48
2023-05-19T01:06:15.807Z,100232.27
2023-05-19T01:10:13.789Z,100229.65
2023-05-19T01:14:11.834Z,100224.50
2023-05-19T01:18:30.793Z,100229.85
2023-05-19T01:22:49.807Z,100229.46
2023-05-19T01:27:00.969Z,100225.57
2023-05-19T01:30:59.769Z,100228.06
2023-05-19T01:34:59.756Z,100225.39
2023-05-19T01:38:57.762Z,100226.16
2023-05-19T01:42:57.681Z,100224.83
2023-05-19T01:46:56.809Z,100223.05
2023-05-19T01:50:55.755Z,100219.88
2023-05-19T01:54:53.800Z,100220.30
2023-05-19T01:58:58.741Z,100210.38
2023-05-19T02:03:08.942Z,100208.76
2023-05-19T02:07:19.733Z,100208.17
2023-05-19T02:11:43.743Z,100211.79
2023-05-19T02:15:48.796Z,100212.33
2023-05-19T02:19:48.781Z,100210.93
2023-05-19T02:23:46.700Z,100211.81
2023-05-19T02:27:44.865Z,100213.64
2023-05-19T02:31:42.754Z,100209.86
2023-05-19T02:35:40.691Z,100213.05
2023-05-19T02:39:41.708Z,100215.63
2023-05-19T02:43:39.698Z,100214.81
2023-05-19T02:47:37.729Z,100213.64
2023-05-19T02:51:35.685Z,100215.86
2023-05-19T02:55:33.664Z,100221.02
2023-05-19T02:59:31.733Z,100222.58
2023-05-19T03:03:29.733Z,100225.52
2023-05-19T03:07:31.722Z,100226.34
2023-05-19T03:11:29.697Z,100224.33
2023-05-19T03:15:29.679Z,100228.15
2023-05-19T03:19:27.741Z,100234.27
2023-05-19T03:23:25.690Z,100236.59
2023-05-19T03:27:23.634Z,100242.95
2023-05-19T03:31:21.672Z,100245.62
2023-05-19T03:35:19.575Z,100244.73
2023-05-19T03:39:17.721Z,100244.23
2023-05-19T03:43:16.644Z,100238.11
2023-05-19T03:47:18.642Z,100244.09
2023-05-19T03:51:26.646Z,100242.33
2023-05-19T03:55:29.609Z,100243.76
2023-05-19T03:59:27.599Z,100240.13
2023-05-19T04:03:25.752Z,100240.49
2023-05-19T04:07:23.599Z,100242.95
2023-05-19T04:11:21.638Z,100239.95
2023-05-19T04:15:19.603Z,100239.14
2023-05-19T04:19:18.065Z,100236.14
2023-05-19T04:23:15.572Z,100235.56
2023-05-19T04:27:18.613Z,100237.46
2023-05-19T04:31:17.579Z,100240.58
2023-05-19T04:35:15.654Z,100241.29
2023-05-19T04:39:15.523Z,100242.36
2023-05-19T04:43:13.627Z,100245.05
2023-05-19T04:47:12.627Z,100244.61
2023-05-19T04:51:10.577Z,100245.33
2023-05-19T04:55:08.553Z,100250.27
2023-05-19T04:59:06.586Z,100252.50
2023-05-19T05:03:04.776Z,100253.87
2023-05-19T05:07:02.525Z,100257.21
2023-05-19T05:11:00.547Z,100257.52
2023-05-19T05:14:58.548Z,100257.23
2023-05-19T05:18:56.547Z,100263.38
2023-05-19T05:22:54.594Z,100260.85
2023-05-19T05:26:52.510Z,100259.84
2023-05-19T05:30:50.593Z,100261.69
2023-05-19T05:34:48.516Z,100269.15
2023-05-19T05:38:47.508Z,100270.92
2023-05-19T05:42:46.488Z,100269.92
2023-05-19T05:46:44.586Z,100268.69
2023-05-19T05:50:42.526Z,100272.32
2023-05-19T05:54:42.496Z,100271.80
2023-05-19T05:58:44.422Z,100271.55
2023-05-19T06:02:22.298Z,100271.28
2023-05-19T06:05:47.145Z,100273.27
2023-05-19T06:09:11.190Z,100274.13
2023-05-19T06:12:35.730Z,100273.73
2023-05-19T06:16:01.848Z,100274.23
2023-05-19T06:19:33.774Z,100274.77
2023-05-19T06:22:57.773Z,100277.67
2023-05-19T06:26:23.021Z,100277.99
2023-05-19T06:29:47.173Z,100280.11
2023-05-19T06:33:11.304Z,100280.64
2023-05-19T06:36:36.086Z,100277.58
2023-05-19T06:40:00.015Z,100281.59
2023-05-19T06:43:25.847Z,100285.71
2023-05-19T06:46:54.586Z,100287.48
2023-05-19T06:50:19.219Z,100288.22
2023-05-19T06:53:43.748Z,100290.98
2023-05-19T06:57:08.942Z,100290.33
2023-05-19T07:00:33.569Z,100290.35
2023-05-19T07:03:58.224Z,100286.40
2023-05-19T07:07:22.694Z,100284.10
2023-05-19T07:10:47.440Z,100284.65
2023-05-19T07:14:12.049Z,100287.11
2023-05-19T07:17:36.055Z,100288.17
2023-05-19T07:21:00.069Z,100284.70
2023-05-19T07:24:25.001Z,100285.30
2023-05-19T07:27:53.753Z,100285.43
2023-05-19T07:31:18.139Z,100286.15
2023-05-19T07:34:42.563Z,100289.05
2023-05-19T07:38:07.621Z,100295.65
2023-05-19T07:41:31.548Z,100291.13
2023-05-19T07:44:55.519Z,100292.75
2023-05-19T07:48:21.689Z,100292.63
2023-05-19T07:51:45.695Z,100301.56
2023-05-19T07:55:09.571Z,100301.11
2023-05-19T07:58:33.620Z,100300.08
2023-05-19T08:01:57.619Z,100302.89
2023-05-19T08:05:21.705Z,100302.55
2023-05-19T08:08:46.470Z,100301.88
2023-05-19T08:12:10.414Z,100297.85
2023-05-19T08:15:37.387Z,100300.89
2023-05-19T08:19:02.841Z,100304.05
2023-05-19T08:22:26.800Z,100301.17
2023-05-19T08:25:50.807Z,100300.16
2023-05-19T08:29:14.974Z,100299.02
2023-05-19T08:32:38.999Z,100292.81
2023-05-19T08:36:03.411Z,100292.08
2023-05-19T08:39:27.679Z,100291.80
2023-05-19T08:42:51.851Z,100290.59
2023-05-19T08:46:17.068Z,100296.08
2023-05-19T08:49:48.327Z,100298.70
2023-05-19T08:53:31.832Z,100297.84
2023-05-19T08:56:57.451Z,100298.20
2023-05-19T09:00:22.747Z,100294.84
2023-05-19T09:03:50.051Z,100295.92
2023-05-19T09:07:16.122Z,100297.64
2023-05-19T09:10:39.950Z,100301.23
2023-05-19T09:14:04.009Z,100298.56
2023-05-19T09:17:28.194Z,100296.72
2023-05-19T09:20:52.343Z,100301.15
2023-05-19T09:24:16.544Z,100297.95
2023-05-19T09:27:40.550Z,100296.70
2023-05-19T09:31:36.129Z,100298.08
2023-05-19T09:35:00.302Z,100297.86
2023-05-19T09:38:28.490Z,100296.20
2023-05-19T09:41:54.029Z,100297.02
2023-05-19T09:45:17.999Z,100297.11
2023-05-19T09:48:42.630Z,100297.92
2023-05-19T09:52:07.274Z,100295.43
2023-05-19T09:55:33.400Z,100295.99
2023-05-19T09:58:57.947Z,100297.24
2023-05-19T10:02:24.514Z,100303.64
2023-05-19T10:05:49.768Z,100294.57
2023-05-19T10:09:14.267Z,100296.57
2023-05-19T10:12:40.216Z,100293.30
2023-05-19T10:16:04.843Z,100293.46
2023-05-19T10:19:30.043Z,100296.41
2023-05-19T10:22:54.095Z,100293.16
2023-05-19T10:26:18.576Z,100295.44
2023-05-19T10:29:49.261Z,100298.90
2023-05-19T10:33:19.993Z,100295.77
2023-05-19T10:36:50.995Z,100290.59
2023-05-19T10:40:34.343Z,100287.63
2023-05-19T10:44:01.537Z,100294.92
2023-05-19T10:47:26.832Z,100298.28
2023-05-19T10:50:54.540Z,100294.70
2023-05-19T10:54:21.033Z,100294.67
2023-05-19T10:57:57.875Z,100292.73
2023-05-19T11:01:22.476Z,100296.70
2023-05-19T11:04:52.539Z,100294.94
2023-05-19T11:08:17.975Z,100292.91
2023-05-19T11:11:49.533Z,100293.89
2023-05-19T11:15:15.746Z,100292.94
2023-05-19T11:18:39.856Z,100292.73
2023-05-19T11:22:15.053Z,100293.38
2023-05-19T11:25:48.881Z,100290.70
2023-05-19T11:29:13.163Z,100291.13
2023-05-19T11:32:39.332Z,100296.19
2023-05-19T11:36:04.530Z,100288.69
2023-05-19T11:39:29.024Z,100287.27
2023-05-19T11:42:52.937Z,100289.02
2023-05-19T11:46:17.107Z,100290.38
2023-05-19T11:49:45.404Z,100288.55
2023-05-19T11:53:09.578Z,100286.85
2023-05-19T11:56:41.714Z,100290.11
2023-05-19T12:00:09.204Z,100293.48
2023-05-19T12:03:33.392Z,100292.73
2023-05-19T12:06:57.507Z,100296.82
2023-05-19T12:10:30.464Z,100296.86
2023-05-19T12:13:59.892Z,100300.67
2023-05-19T12:17:24.517Z,100301.08
2023-05-19T12:20:48.945Z,100301.48
2023-05-19T12:24:13.129Z,100299.98
2023-05-19T12:27:38.524Z,100294.65
2023-05-19T12:31:03.571Z,100295.49
2023-05-19T12:34:27.599Z,100293.84
2023-05-19T12:37:51.538Z,100294.77
2023-05-19T12:41:15.608Z,100297.39
2023-05-19T12:44:44.254Z,100295.23
2023-05-19T12:48:12.939Z,100295.76
2023-05-19T12:51:38.002Z,100290.70
2023-05-19T12:55:07.230Z,100289.77
2023-05-19T12:58:34.720Z,100286.20
2023-05-19T13:01:59.855Z,100283.17
2023-05-19T13:05:24.032Z,100279.55
2023-05-19T13:08:48.504Z,100280.38
2023-05-19T13:12:12.716Z,100278.78
2023-05-19T13:15:41.623Z,100283.06
2023-05-19T13:19:06.322Z,100277.05
2023-05-19T13:22:30.667Z,100274.21
2023-05-19T13:25:54.711Z,100279.09
2023-05-19T13:29:18.961Z,100272.61
2023-05-19T13:33:03.096Z,100278.73
2023-05-19T13:37:01.068Z,100283.42
2023-05-19T13:40:58.962Z,100279.74
2023-05-19T13:45:24.350Z,100277.27
2023-05-19T13:49:22.212Z,100277.19
2023-05-19T13:53:26.047Z,100276.13
2023-05-19T13:57:24.002Z,100274.27
2023-05-19T14:01:22.032Z,100275.09
2023-05-19T14:05:20.963Z,100274.42
2023-05-19T14:09:19.976Z,100274.30
2023-05-19T14:13:32.673Z,100276.02
2023-05-19T14:17:32.130Z,100280.77
2023-05-19T14:21:30.065Z,100281.00
2023-05-19T14:25:29.931Z,100280.10
2023-05-19T14:29:27.926Z,100275.64
2023-05-19T14:33:25.950Z,100278.89
2023-05-19T14:37:23.952Z,100277.97
2023-05-19T14:41:22.025Z,100279.79
2023-05-19T14:45:19.905Z,100284.47
2023-05-19T14:49:17.954Z,100282.03
2023-05-19T14:53:15.939Z,100283.41
2023-05-19T14:57:14.907Z,100284.94
2023-05-19T15:01:12.980Z,100288.38
2023-05-19T15:05:10.903Z,100288.43
2023-05-19T15:09:08.872Z,100289.33
2023-05-19T15:13:06.976Z,100287.21
2023-05-19T15:17:04.911Z,100287.79
2023-05-19T15:21:02.950Z,100285.14
2023-05-19T15:25:00.870Z,100289.14
2023-05-19T15:28:58.965Z,100291.31
2023-05-19T15:32:56.921Z,100290.76
2023-05-19T15:36:54.856Z,100282.24
2023-05-19T15:40:52.890Z,100281.48
2023-05-19T15:45:10.889Z,100275.60
2023-05-19T15:49:16.852Z,100275.19
2023-05-19T15:53:15.870Z,100276.70
2023-05-19T15:57:13.855Z,100273.60
2023-05-19T16:01:11.876Z,100272.61
2023-05-19T16:05:09.858Z,100274.15
2023-05-19T16:09:07.838Z,100273.47
2023-05-19T16:13:05.855Z,100273.17
2023-05-19T16:17:03.836Z,100279.64
2023-05-19T16:21:01.826Z,100275.52
2023-05-19T16:24:59.825Z,100278.80
2023-05-19T16:28:57.796Z,100282.48
2023-05-19T16:32:55.948Z,100284.01
2023-05-19T16:36:53.857Z,100284.45
2023-05-19T16:40:51.792Z,100281.36
2023-05-19T16:45:23.773Z,100278.78
2023-05-19T16:49:21.809Z,100278.41
2023-05-19T16:53:19.803Z,100287.09
2023-05-19T16:57:17.806Z,100287.94
2023-05-19T17:01:16.831Z,100286.83
2023-05-19T17:05:14.830Z,100288.95
2023-05-19T17:09:12.756Z,100278.41
2023-05-19T17:13:10.765Z,100275.77
2023-05-19T17:17:09.034Z,100276.45
2023-05-19T17:21:09.857Z,100275.44
2023-05-19T17:25:07.736Z,100277.77
2023-05-19T17:29:05.817Z,100281.21
2023-05-19T17:33:05.837Z,100280.05
2023-05-19T17:37:03.824Z,100284.40
2023-05-19T17:41:01.734Z,100288.55
2023-05-19T17:44:59.752Z,100288.31
2023-05-19T17:48:57.933Z,100295.16
2023-05-19T17:52:55.768Z,100292.48
2023-05-19T17:56:57.315Z,100295.25
2023-05-19T18:00:54.760Z,100299.92
2023-05-19T18:04:52.700Z,100300.09
2023-05-19T18:08:53.792Z,100295.23
2023-05-19T18:12:51.709Z,100296.85
2023-05-19T18:16:49.939Z,100295.98
2023-05-19T18:20:52.654Z,100297.41
2023-05-19T18:24:50.716Z,100304.80
2023-05-19T18:28:48.694Z,100307.73
2023-05-19T18:32:47.845Z,100314.73
2023-05-19T18:36:45.767Z,100321.19
2023-05-19T18:40:43.714Z,100322.61
2023-05-19T18:44:41.659Z,100326.33
2023-05-19T18:48:39.753Z,100331.60
2023-05-19T18:52:37.657Z,100333.23
2023-05-19T18:56:41.679Z,100335.15
2023-05-19T19:00:39.823Z,100336.40
2023-05-19T19:04:37.771Z,100340.23
2023-05-19T19:08:35.781Z,100340.67
2023-05-19T19:12:33.777Z,100339.16
2023-05-19T19:16:31.698Z,100333.53
2023-05-19T19:20:29.660Z,100331.56
2023-05-19T19:24:27.677Z,100335.75
2023-05-19T19:28:25.624Z,100336.94
2023-05-19T19:32:23.621Z,100336.00
2023-05-19T19:36:21.635Z,100337.20
2023-05-19T19:40:19.605Z,100337.09
2023-05-19T19:44:17.666Z,100335.77
2023-05-19T19:48:15.650Z,100337.20
2023-05-19T19:52:13.722Z,100343.94
2023-05-19T19:56:12.668Z,100343.45
2023-05-19T20:00:14.726Z,100350.90
2023-05-19T20:04:12.825Z,100353.18
2023-05-19T20:12:09.563Z,100353.44
2023-05-19T20:16:07.688Z,100350.94
2023-05-19T20:20:06.588Z,100351.73
2023-05-19T20:24:04.573Z,100352.35
2023-05-19T20:28:02.584Z,100351.36
2023-05-19T20:32:00.556Z,100348.44
2023-05-19T20:35:58.558Z,100343.66
2023-05-19T20:39:56.566Z,100339.20
2023-05-19T20:43:54.533Z,100341.02
2023-05-19T20:47:52.691Z,100343.40
2023-05-19T20:51:50.576Z,100342.58
2023-05-19T20:55:48.548Z,100340.38
2023-05-19T20:59:51.542Z,100339.02
2023-05-19T21:03:49.564Z,100342.21
2023-05-19T21:07:47.621Z,100339.88
2023-05-19T21:11:45.546Z,100340.31
2023-05-19T21:15:43.528Z,100335.39
2023-05-19T21:19:42.566Z,100337.34
2023-05-19T21:23:40.501Z,100339.80
2023-05-19T21:27:39.541Z,100339.29
2023-05-19T21:31:37.558Z,100338.45
2023-05-19T21:35:35.515Z,100341.86
2023-05-19T21:39:33.486Z,100346.11
2023-05-19T21:43:31.535Z,100342.88
2023-05-19T21:47:29.655Z,100337.22
2023-05-19T21:51:27.645Z,100336.56
2023-05-19T21:55:25.426Z,100339.16
2023-05-19T21:59:23.499Z,100341.78
2023-05-19T22:03:21.539Z,100337.69
2023-05-19T22:07:20.462Z,100336.29
2023-05-19T22:11:18.460Z,100336.47
2023-05-19T22:15:16.592Z,100334.13
2023-05-19T22:19:14.486Z,100336.30
2023-05-19T22:23:12.545Z,100334.45
2023-05-19T22:27:10.543Z,100336.89
2023-05-19T22:31:08.586Z,100334.53
2023-05-19T22:35:06.531Z,100332.70
2023-05-19T22:39:04.467Z,100331.41
2023-05-19T22:43:02.381Z,100334.01
2023-05-19T22:47:00.431Z,100332.84
2023-05-19T22:50:58.495Z,100327.54
2023-05-19T22:54:56.489Z,100322.93
2023-05-19T22:58:54.419Z,100320.86
2023-05-19T23:02:52.464Z,100315.02
2023-05-19T23:06:50.355Z,100318.79
2023-05-19T23:10:48.408Z,100316.19
2023-05-19T23:14:46.359Z,100318.02
2023-05-19T23:18:44.494Z,100310.25
2023-05-19T23:23:09.365Z,100310.70
2023-05-19T23:27:08.409Z,100313.39
2023-05-19T23:31:07.426Z,100317.60
2023-05-19T23:35:05.382Z,100318.31
2023-05-19T23:39:03.506Z,100322.13
2023-05-19T23:43:01.375Z,100321.46
2023-05-19T23:46:59.436Z,100322.08
2023-05-19T23:50:57.405Z,100325.07
2023-05-19T23:54:55.356Z,100323.41
2023-05-19T23:58:54.590Z,100322.61
